Flugplatz Laucha

Für EDBL sind keine METAR/TAF Berichte vorhanden.
Es werden die Flugwettermeldungen vom Flugplatz Leipzig Halle in 42 km Entfernung angezeigt.

Bericht für EDDP

vom 29.09. um 13:20 UTC

variable Windrichtung mit 2 kt

Sichtweite 10 km oder mehr

aufgelockert bewölkt in 3500 ft

Temperatur 15.0°C

Taupunkt 7.0°C

Luftfeuchtigkeit 59%

Luftdruck 1003 hPa

keine wesentliche Wetteränderung innerhalb den nächsten 2 Stunden zu erwarten

EDDP 291320Z AUTO VRB02KT 9999 SCT035 15/07 Q1003 NOSIG

Prognose für EDDP

vom 29.09. um 11:00 UTC

Zwischen 12:00 UTC und 12:00 UTC

variable Windrichtung mit 3 kt

Sichtweite 10 km oder mehr

aufgelockert bewölkt in 4000 ft


Zwischen 12:00 UTC und 16:00 UTC zeitweise mit einer Wahrscheinlichkeit von 30%

Regenschauer

aufgebrochene Bewölkung in 3000 ft


Am 30.09. zwischen 00:00 UTC und 07:00 UTC zeitweise mit einer Wahrscheinlichkeit von 30%

Sichtweite 2000 m

Nebelschwaden

TAF EDDP 291100Z 2912/3012 VRB03KT 9999 SCT040 PROB30 TEMPO 2912/2916 SHRA BKN030CB PROB30 TEMPO 3000/3007 2000 BCFG
Impressum